createdAt,value
2022-10-05T00:00:23.934Z,10.39
2022-10-05T00:02:25.728Z,10.35
2022-10-05T00:04:27.307Z,10.40
2022-10-05T00:06:30.310Z,10.44
2022-10-05T00:08:33.942Z,10.35
2022-10-05T00:10:35.563Z,10.31
2022-10-05T00:12:36.992Z,10.25
2022-10-05T00:14:39.245Z,10.19
2022-10-05T00:16:40.769Z,10.18
2022-10-05T00:18:43.240Z,10.11
2022-10-05T00:20:46.343Z,10.10
2022-10-05T00:22:50.814Z,10.08
2022-10-05T00:24:58.083Z,10.17
2022-10-05T00:27:00.633Z,10.20
2022-10-05T00:29:08.680Z,10.16
2022-10-05T00:31:16.579Z,10.20
2022-10-05T00:33:18.085Z,10.13
2022-10-05T00:35:19.756Z,10.10
2022-10-05T00:37:21.273Z,10.13
2022-10-05T00:39:23.942Z,9.99
2022-10-05T00:41:33.590Z,9.91
2022-10-05T00:43:49.901Z,9.82
2022-10-05T00:45:56.383Z,9.79
2022-10-05T00:48:12.462Z,9.81
2022-10-05T00:50:31.643Z,9.74
2022-10-05T00:52:41.675Z,9.76
2022-10-05T00:54:52.175Z,9.78
2022-10-05T00:57:10.720Z,9.83
2022-10-05T00:59:21.941Z,9.74
2022-10-05T01:01:29.573Z,9.81
2022-10-05T01:03:39.147Z,9.79
2022-10-05T01:05:56.571Z,9.86
2022-10-05T01:08:10.745Z,9.90
2022-10-05T01:10:19.092Z,9.89
2022-10-05T01:12:27.424Z,9.87
2022-10-05T01:14:34.815Z,9.96
2022-10-05T01:16:47.279Z,9.91
2022-10-05T01:18:53.668Z,9.86
2022-10-05T01:21:03.303Z,9.85
2022-10-05T01:23:36.828Z,9.81
2022-10-05T01:25:55.225Z,9.85
2022-10-05T01:28:06.525Z,9.86
2022-10-05T01:30:12.231Z,9.93
2022-10-05T01:32:20.376Z,9.99
2022-10-05T01:34:30.828Z,9.91
2022-10-05T01:36:40.444Z,9.81
2022-10-05T01:38:48.116Z,9.85
2022-10-05T01:40:58.150Z,9.95
2022-10-05T01:43:10.308Z,9.95
2022-10-05T01:45:18.790Z,9.90
2022-10-05T01:47:28.616Z,9.87
2022-10-05T01:49:36.783Z,9.83
2022-10-05T01:51:45.992Z,9.76
2022-10-05T01:53:59.895Z,9.73
2022-10-05T01:56:09.791Z,9.77
2022-10-05T01:58:20.697Z,9.66
2022-10-05T02:00:22.175Z,9.59
2022-10-05T02:02:24.180Z,9.63
2022-10-05T02:05:00.328Z,9.60
2022-10-05T02:06:54.090Z,9.59
2022-10-05T02:09:01.567Z,9.47
2022-10-05T02:11:06.642Z,9.44
2022-10-05T02:13:13.419Z,9.49
2022-10-05T02:15:22.982Z,9.41
2022-10-05T02:17:39.173Z,9.33
2022-10-05T02:19:44.639Z,9.37
2022-10-05T02:21:50.438Z,9.36
2022-10-05T02:23:55.739Z,9.43
2022-10-05T02:25:58.244Z,9.32
2022-10-05T02:28:04.179Z,9.41
2022-10-05T02:30:11.639Z,9.37
2022-10-05T02:32:23.588Z,9.43
2022-10-05T02:34:27.388Z,9.47
2022-10-05T02:36:35.108Z,9.49
2022-10-05T02:38:43.982Z,9.49
2022-10-05T02:40:55.767Z,9.45
2022-10-05T02:43:04.344Z,9.42
2022-10-05T02:45:16.790Z,9.53
2022-10-05T02:47:27.474Z,9.53
2022-10-05T02:49:39.364Z,9.58
2022-10-05T02:51:46.816Z,9.45
2022-10-05T02:54:00.132Z,9.40
2022-10-05T02:56:15.348Z,9.39
2022-10-05T02:58:22.710Z,9.41
2022-10-05T03:00:25.826Z,9.45
2022-10-05T03:02:35.559Z,9.35
2022-10-05T03:04:42.485Z,9.40
2022-10-05T03:06:50.302Z,9.37
2022-10-05T03:08:57.256Z,9.40
2022-10-05T03:11:07.173Z,9.36
2022-10-05T03:13:15.891Z,9.37
2022-10-05T03:15:31.186Z,9.45
2022-10-05T03:17:44.804Z,9.49
2022-10-05T03:20:07.610Z,9.50
2022-10-05T03:22:17.864Z,9.54
2022-10-05T03:24:36.086Z,9.55
2022-10-05T03:26:45.130Z,9.56
2022-10-05T03:29:11.231Z,9.54
2022-10-05T03:31:21.981Z,9.59
2022-10-05T03:33:36.943Z,9.69
2022-10-05T03:35:50.308Z,9.75
2022-10-05T03:37:59.610Z,9.79
2022-10-05T03:40:09.783Z,9.78
2022-10-05T03:42:21.019Z,9.80
2022-10-05T03:44:36.506Z,9.70
2022-10-05T03:46:51.312Z,9.80
2022-10-05T03:49:02.575Z,9.72
2022-10-05T03:51:07.907Z,9.68
2022-10-05T03:53:16.302Z,9.68
2022-10-05T03:55:24.286Z,9.82
2022-10-05T03:57:28.573Z,9.90
2022-10-05T03:59:34.160Z,9.70
2022-10-05T04:01:39.465Z,9.75
2022-10-05T04:03:45.953Z,9.75
2022-10-05T04:05:53.649Z,9.88
2022-10-05T04:08:01.437Z,9.79
2022-10-05T04:10:05.736Z,9.88
2022-10-05T04:12:16.417Z,9.95
2022-10-05T04:14:22.176Z,9.79
2022-10-05T04:16:28.235Z,9.90
2022-10-05T04:18:34.493Z,9.81
2022-10-05T04:20:41.432Z,9.86
2022-10-05T04:22:53.272Z,9.89
2022-10-05T04:25:01.241Z,9.88
2022-10-05T04:27:10.654Z,9.88
2022-10-05T04:29:19.324Z,9.77
2022-10-05T04:31:37.008Z,9.77
2022-10-05T04:33:38.472Z,9.83
2022-10-05T04:35:56.921Z,9.79
2022-10-05T04:38:15.759Z,9.86
2022-10-05T04:40:31.191Z,9.87
2022-10-05T04:42:37.881Z,9.92
2022-10-05T04:45:03.122Z,9.79
2022-10-05T04:47:18.398Z,9.88
2022-10-05T04:49:41.468Z,9.71
2022-10-05T04:51:53.359Z,9.80
2022-10-05T04:54:01.593Z,9.86
2022-10-05T04:56:11.271Z,9.80
2022-10-05T04:58:23.877Z,9.74
2022-10-05T05:00:28.912Z,9.67
2022-10-05T05:02:43.378Z,9.71
2022-10-05T05:05:15.128Z,9.81
2022-10-05T05:07:32.006Z,9.73
2022-10-05T05:09:55.959Z,9.70
2022-10-05T05:12:12.303Z,9.89
2022-10-05T05:14:36.682Z,9.88
2022-10-05T05:16:40.387Z,9.96
2022-10-05T05:18:53.958Z,9.87
2022-10-05T05:21:05.373Z,9.86
2022-10-05T05:23:18.664Z,9.78
2022-10-05T05:25:36.441Z,9.93
2022-10-05T05:27:42.942Z,9.82
2022-10-05T05:29:53.394Z,9.87
2022-10-05T05:32:00.970Z,9.79
2022-10-05T05:34:17.600Z,9.91
2022-10-05T05:36:31.157Z,9.96
2022-10-05T05:38:38.619Z,9.99
2022-10-05T05:40:48.609Z,10.03
2022-10-05T05:42:57.613Z,9.91
2022-10-05T05:45:07.404Z,9.91
2022-10-05T05:47:17.198Z,9.89
2022-10-05T05:49:22.896Z,9.94
2022-10-05T05:51:28.871Z,9.93
2022-10-05T05:53:37.304Z,10.01
2022-10-05T05:55:42.367Z,9.98
2022-10-05T05:57:50.961Z,10.09
2022-10-05T06:00:01.215Z,10.04
2022-10-05T06:02:06.856Z,10.10
2022-10-05T06:04:12.658Z,10.21
2022-10-05T06:06:16.779Z,10.22
2022-10-05T06:08:27.873Z,10.38
2022-10-05T06:10:38.190Z,10.43
2022-10-05T06:12:46.342Z,10.42
2022-10-05T06:14:53.070Z,10.45
2022-10-05T06:17:00.480Z,10.44
2022-10-05T06:19:05.904Z,10.49
2022-10-05T06:21:18.511Z,10.47
2022-10-05T06:23:27.047Z,10.45
2022-10-05T06:25:40.823Z,10.57
2022-10-05T06:28:01.598Z,10.65
2022-10-05T06:30:07.593Z,10.65
2022-10-05T06:32:17.714Z,10.61
2022-10-05T06:34:32.892Z,10.64
2022-10-05T06:36:42.799Z,10.79
2022-10-05T06:39:01.792Z,10.81
2022-10-05T06:41:13.939Z,10.81
2022-10-05T06:43:30.563Z,11.02
2022-10-05T06:45:44.725Z,11.01
2022-10-05T06:47:49.837Z,11.01
2022-10-05T06:49:56.813Z,11.06
2022-10-05T06:52:08.184Z,11.07
2022-10-05T06:54:26.176Z,11.11
2022-10-05T06:56:33.316Z,11.28
2022-10-05T06:58:46.510Z,11.31
2022-10-05T07:00:54.033Z,11.40
2022-10-05T07:03:03.280Z,11.34
2022-10-05T07:05:30.795Z,11.59
2022-10-05T07:07:41.466Z,11.54
2022-10-05T07:09:53.220Z,11.63
2022-10-05T07:12:06.767Z,11.76
2022-10-05T07:14:22.424Z,11.82
2022-10-05T07:16:36.395Z,11.73
2022-10-05T07:18:50.189Z,11.73
2022-10-05T07:21:00.027Z,11.63
2022-10-05T07:23:19.317Z,11.76
2022-10-05T07:25:26.469Z,11.84
2022-10-05T07:27:32.159Z,11.88
2022-10-05T07:29:39.315Z,12.10
2022-10-05T07:31:47.627Z,11.99
2022-10-05T07:33:58.713Z,11.98
2022-10-05T07:36:08.421Z,11.97
2022-10-05T07:38:19.611Z,12.23
2022-10-05T07:40:25.921Z,12.30
2022-10-05T07:42:46.042Z,12.65
2022-10-05T07:44:58.129Z,12.88
2022-10-05T07:47:07.086Z,13.26
2022-10-05T07:49:18.155Z,13.49
2022-10-05T07:51:29.112Z,13.50
2022-10-05T07:53:36.154Z,13.27
2022-10-05T07:55:44.055Z,13.19
2022-10-05T07:57:53.761Z,13.20
2022-10-05T08:00:03.591Z,13.17
2022-10-05T08:02:17.889Z,13.21
2022-10-05T08:04:24.246Z,13.26
2022-10-05T08:06:46.614Z,13.40
2022-10-05T08:08:52.538Z,13.26
2022-10-05T08:11:01.851Z,13.42
2022-10-05T08:13:10.481Z,13.39
2022-10-05T08:15:15.604Z,13.44
2022-10-05T08:17:25.656Z,13.56
2022-10-05T08:19:35.270Z,13.63
2022-10-05T08:21:44.267Z,13.74
2022-10-05T08:23:51.576Z,13.88
2022-10-05T08:26:11.489Z,13.84
2022-10-05T08:28:20.105Z,13.90
2022-10-05T08:30:23.690Z,14.09
2022-10-05T08:32:28.803Z,13.98
2022-10-05T08:34:40.050Z,14.01
2022-10-05T08:36:54.018Z,14.24
2022-10-05T08:38:59.453Z,14.31
2022-10-05T08:41:38.543Z,14.67
2022-10-05T08:44:00.878Z,14.83
2022-10-05T08:46:31.954Z,14.95
2022-10-05T08:49:01.248Z,15.04
2022-10-05T08:51:23.339Z,15.20
2022-10-05T08:53:46.758Z,15.34
2022-10-05T08:56:04.280Z,15.08
2022-10-05T08:58:39.231Z,15.05
2022-10-05T09:00:53.699Z,15.06
2022-10-05T09:03:25.090Z,15.04
2022-10-05T09:05:58.864Z,15.02
2022-10-05T09:08:39.378Z,15.13
2022-10-05T09:11:01.020Z,15.24
2022-10-05T09:13:25.684Z,15.05
2022-10-05T09:15:47.014Z,14.97
2022-10-05T09:18:19.174Z,15.01
2022-10-05T09:20:30.221Z,15.19
2022-10-05T09:22:36.771Z,15.26
2022-10-05T09:24:53.962Z,15.33
2022-10-05T09:27:03.224Z,15.25
2022-10-05T09:29:22.980Z,15.26
2022-10-05T09:31:47.049Z,15.35
2022-10-05T09:34:24.479Z,15.35
2022-10-05T09:36:55.342Z,15.16
2022-10-05T09:39:49.616Z,15.10
2022-10-05T09:42:20.819Z,15.00
2022-10-05T09:44:57.703Z,15.02
2022-10-05T09:47:35.357Z,15.08
2022-10-05T09:50:06.950Z,15.17
2022-10-05T09:52:25.615Z,15.29
2022-10-05T09:54:51.719Z,15.36
2022-10-05T09:57:10.455Z,15.42
2022-10-05T09:59:39.786Z,15.43
2022-10-05T10:02:15.132Z,15.40
2022-10-05T10:04:33.568Z,15.57
2022-10-05T10:07:25.393Z,15.64
2022-10-05T10:09:37.881Z,15.95
2022-10-05T10:11:54.472Z,16.08
2022-10-05T10:14:34.814Z,16.09
2022-10-05T10:16:46.100Z,16.10
2022-10-05T10:19:21.922Z,16.03
2022-10-05T10:21:40.800Z,15.95
2022-10-05T10:24:00.409Z,15.99
2022-10-05T10:26:46.589Z,15.96
2022-10-05T10:29:04.082Z,15.92
2022-10-05T10:31:37.570Z,15.87
2022-10-05T10:33:56.605Z,15.94
2022-10-05T10:36:07.100Z,15.92
2022-10-05T10:38:35.053Z,15.87
2022-10-05T10:40:55.548Z,15.88
2022-10-05T10:43:21.594Z,15.82
2022-10-05T10:45:45.109Z,15.91
2022-10-05T10:47:51.181Z,16.07
2022-10-05T10:50:22.718Z,16.04
2022-10-05T10:52:41.882Z,16.06
2022-10-05T10:55:16.929Z,16.00
2022-10-05T10:57:28.247Z,16.10
2022-10-05T11:00:21.410Z,16.04
2022-10-05T11:02:34.973Z,16.20
2022-10-05T11:05:23.095Z,16.34
2022-10-05T11:07:44.364Z,16.40
2022-10-05T11:10:03.820Z,16.52
2022-10-05T11:12:54.353Z,16.60
2022-10-05T11:15:31.305Z,16.51
2022-10-05T11:18:01.204Z,16.44
2022-10-05T11:20:41.979Z,16.49
2022-10-05T11:22:57.325Z,16.66
2022-10-05T11:25:19.367Z,16.96
2022-10-05T11:27:45.222Z,17.18
2022-10-05T11:30:13.685Z,17.40
2022-10-05T11:32:53.263Z,17.64
2022-10-05T11:35:36.324Z,17.68
2022-10-05T11:38:04.016Z,17.85
2022-10-05T11:40:33.284Z,18.22
2022-10-05T11:43:03.656Z,18.19
2022-10-05T11:45:23.765Z,18.13
2022-10-05T11:47:31.526Z,18.15
2022-10-05T11:49:40.004Z,18.26
2022-10-05T11:51:54.627Z,18.00
2022-10-05T11:54:06.532Z,17.90
2022-10-05T11:56:20.184Z,17.96
2022-10-05T11:58:28.218Z,17.75
2022-10-05T12:00:36.067Z,17.74
2022-10-05T12:02:59.111Z,17.66
2022-10-05T12:05:07.661Z,17.62
2022-10-05T12:07:17.837Z,17.73
2022-10-05T12:09:33.703Z,17.83
2022-10-05T12:11:53.236Z,17.93
2022-10-05T12:14:04.634Z,18.05
2022-10-05T12:16:13.005Z,17.99
2022-10-05T12:18:23.533Z,17.97
2022-10-05T12:20:31.367Z,17.94
2022-10-05T12:22:38.304Z,18.02
2022-10-05T12:24:57.834Z,18.16
2022-10-05T12:27:04.847Z,18.36
2022-10-05T12:29:13.634Z,18.47
2022-10-05T12:31:25.676Z,18.39
2022-10-05T12:33:34.676Z,18.38
2022-10-05T12:35:48.512Z,18.47
2022-10-05T12:37:53.997Z,18.52
2022-10-05T12:40:02.510Z,18.62
2022-10-05T12:42:15.741Z,18.61
2022-10-05T12:44:36.976Z,18.61
2022-10-05T12:46:47.138Z,18.49
2022-10-05T12:49:21.946Z,18.35
2022-10-05T12:51:34.586Z,18.48
2022-10-05T12:53:52.894Z,18.65
2022-10-05T12:56:03.279Z,18.75
2022-10-05T12:58:18.385Z,18.78
2022-10-05T13:00:23.220Z,18.78
2022-10-05T13:02:34.761Z,18.94
2022-10-05T13:04:43.628Z,19.06
2022-10-05T13:07:02.948Z,19.15
2022-10-05T13:09:10.498Z,18.77
2022-10-05T13:11:15.322Z,18.56
2022-10-05T13:13:43.209Z,18.43
2022-10-05T13:15:50.930Z,18.33
2022-10-05T13:17:59.866Z,18.36
2022-10-05T13:20:12.086Z,18.43
2022-10-05T13:22:31.627Z,18.35
2022-10-05T13:24:41.853Z,18.39
2022-10-05T13:26:49.567Z,18.51
2022-10-05T13:28:59.790Z,18.48
2022-10-05T13:31:11.166Z,18.52
2022-10-05T13:33:20.042Z,18.64
2022-10-05T13:35:43.830Z,18.75
2022-10-05T13:37:55.341Z,18.68
2022-10-05T13:40:10.985Z,18.64
2022-10-05T13:42:17.614Z,18.61
2022-10-05T13:44:27.464Z,18.70
2022-10-05T13:46:37.519Z,18.81
2022-10-05T13:48:54.915Z,18.73
2022-10-05T13:51:07.180Z,18.49
2022-10-05T13:53:19.955Z,18.33
2022-10-05T13:55:36.833Z,18.38
2022-10-05T13:57:48.074Z,18.49
2022-10-05T13:59:53.724Z,18.57
2022-10-05T14:01:58.532Z,18.60
2022-10-05T14:04:13.760Z,18.54
2022-10-05T14:06:26.298Z,18.50
2022-10-05T14:08:31.543Z,18.43
2022-10-05T14:10:37.122Z,18.40
2022-10-05T14:12:41.282Z,18.43
2022-10-05T14:14:47.308Z,18.44
2022-10-05T14:16:51.949Z,18.39
2022-10-05T14:18:57.893Z,18.28
2022-10-05T14:21:02.291Z,18.25
2022-10-05T14:23:13.287Z,18.21
2022-10-05T14:25:15.979Z,18.24
2022-10-05T14:27:21.105Z,18.18
2022-10-05T14:29:24.773Z,18.17
2022-10-05T14:31:33.053Z,18.19
2022-10-05T14:33:35.468Z,18.24
2022-10-05T14:35:47.064Z,18.25
2022-10-05T14:37:54.591Z,18.26
2022-10-05T14:39:58.803Z,18.32
2022-10-05T14:42:13.578Z,18.16
2022-10-05T14:44:27.786Z,18.15
2022-10-05T14:46:31.239Z,18.20
2022-10-05T14:48:41.169Z,18.16
2022-10-05T14:50:52.547Z,18.25
2022-10-05T14:53:13.010Z,18.29
2022-10-05T14:55:35.005Z,18.22
2022-10-05T14:57:45.979Z,18.19
2022-10-05T15:00:01.659Z,18.17
2022-10-05T15:02:18.936Z,18.18
2022-10-05T15:04:33.934Z,18.15
2022-10-05T15:06:38.584Z,18.07
2022-10-05T15:08:52.048Z,18.05
2022-10-05T15:11:00.234Z,18.01
2022-10-05T15:13:11.920Z,18.03
2022-10-05T15:15:26.751Z,17.97
2022-10-05T15:17:37.741Z,17.93
2022-10-05T15:19:51.650Z,17.90
2022-10-05T15:22:00.317Z,17.92
2022-10-05T15:24:06.124Z,17.85
2022-10-05T15:26:28.405Z,17.84
2022-10-05T15:28:37.488Z,17.77
2022-10-05T15:30:45.914Z,17.70
2022-10-05T15:33:03.414Z,17.67
2022-10-05T15:35:34.640Z,17.67
2022-10-05T15:37:42.090Z,17.62
2022-10-05T15:39:49.312Z,17.56
2022-10-05T15:41:59.298Z,17.49
2022-10-05T15:44:09.193Z,17.42
2022-10-05T15:46:16.133Z,17.38
2022-10-05T15:48:22.630Z,17.34
2022-10-05T15:50:27.342Z,17.23
2022-10-05T15:52:36.435Z,17.18
2022-10-05T15:55:00.579Z,17.15
2022-10-05T15:57:11.127Z,17.14
2022-10-05T15:59:23.191Z,17.11
2022-10-05T16:01:40.652Z,17.06
2022-10-05T16:03:49.145Z,16.99
2022-10-05T16:05:56.561Z,16.95
2022-10-05T16:07:58.144Z,16.90
2022-10-05T16:10:06.780Z,16.83
2022-10-05T16:12:29.761Z,16.77
2022-10-05T16:14:55.698Z,16.70
2022-10-05T16:17:11.513Z,16.65
2022-10-05T16:19:21.246Z,16.56
2022-10-05T16:21:30.872Z,16.48
2022-10-05T16:23:42.429Z,16.46
2022-10-05T16:25:57.735Z,16.40
2022-10-05T16:28:18.308Z,16.33
2022-10-05T16:30:22.114Z,16.26
2022-10-05T16:32:29.050Z,16.15
2022-10-05T16:34:41.635Z,16.09
2022-10-05T16:36:55.232Z,16.03
2022-10-05T16:39:03.005Z,15.92
2022-10-05T16:41:14.572Z,15.84
2022-10-05T16:43:29.838Z,15.78
2022-10-05T16:45:45.986Z,15.71
2022-10-05T16:47:57.644Z,15.66
2022-10-05T16:50:08.457Z,15.53
2022-10-05T16:52:16.119Z,15.47
2022-10-05T16:54:18.639Z,15.37
2022-10-05T16:56:25.943Z,15.41
2022-10-05T16:58:40.513Z,15.33
2022-10-05T17:00:57.874Z,15.30
2022-10-05T17:03:15.933Z,15.18
2022-10-05T17:05:31.144Z,15.03
2022-10-05T17:07:47.645Z,14.95
2022-10-05T17:10:05.401Z,14.98
2022-10-05T17:12:20.544Z,14.91
2022-10-05T17:14:36.609Z,14.91
2022-10-05T17:16:51.367Z,14.86
2022-10-05T17:19:06.097Z,14.92
2022-10-05T17:21:15.364Z,14.98
2022-10-05T17:23:27.257Z,14.84
2022-10-05T17:25:42.788Z,14.67
2022-10-05T17:27:55.344Z,14.66
2022-10-05T17:30:38.927Z,14.66
2022-10-05T17:32:56.250Z,14.60
2022-10-05T17:35:17.992Z,14.54
2022-10-05T17:37:34.648Z,14.52
2022-10-05T17:39:49.103Z,14.49
2022-10-05T17:41:50.714Z,14.60
2022-10-05T17:44:21.457Z,14.49
2022-10-05T17:46:37.725Z,14.50
2022-10-05T17:49:17.346Z,14.45
2022-10-05T17:51:58.743Z,14.40
2022-10-05T17:54:18.971Z,14.23
2022-10-05T17:56:21.249Z,14.19
2022-10-05T17:58:59.240Z,14.16
2022-10-05T18:01:13.746Z,14.11
2022-10-05T18:03:34.998Z,14.12
2022-10-05T18:05:37.899Z,14.13
2022-10-05T18:07:40.169Z,14.07
2022-10-05T18:09:59.733Z,14.04
2022-10-05T18:12:36.611Z,13.95
2022-10-05T18:15:00.268Z,13.97
2022-10-05T18:17:04.046Z,13.97
2022-10-05T18:19:14.693Z,13.97
2022-10-05T18:21:37.743Z,13.89
2022-10-05T18:23:42.918Z,13.85
2022-10-05T18:25:48.399Z,13.78
2022-10-05T18:28:16.405Z,13.73
2022-10-05T18:30:21.848Z,13.72
2022-10-05T18:32:34.486Z,13.75
2022-10-05T18:34:42.661Z,13.73
2022-10-05T18:36:57.482Z,13.78
2022-10-05T18:39:07.362Z,13.80
2022-10-05T18:41:17.788Z,13.75
2022-10-05T18:43:30.536Z,13.88
2022-10-05T18:45:44.646Z,13.80
2022-10-05T18:47:55.499Z,13.72
2022-10-05T18:50:10.573Z,13.73
2022-10-05T18:52:23.159Z,13.69
2022-10-05T18:54:39.368Z,13.59
2022-10-05T18:56:44.900Z,13.57
2022-10-05T18:58:57.244Z,13.53
2022-10-05T19:01:37.369Z,13.52
2022-10-05T19:03:50.039Z,13.51
2022-10-05T19:06:02.212Z,13.53
2022-10-05T19:08:09.952Z,13.63
2022-10-05T19:10:17.129Z,13.69
2022-10-05T19:12:27.698Z,13.74
2022-10-05T19:14:37.639Z,13.77
2022-10-05T19:16:54.176Z,13.81
2022-10-05T19:19:27.201Z,13.79
2022-10-05T19:21:40.738Z,13.81
2022-10-05T19:23:58.224Z,13.87
2022-10-05T19:26:13.689Z,13.88
2022-10-05T19:28:23.899Z,13.81
2022-10-05T19:30:33.344Z,13.84
2022-10-05T19:32:46.366Z,13.83
2022-10-05T19:35:03.115Z,13.79
2022-10-05T19:37:10.191Z,13.82
2022-10-05T19:39:21.881Z,13.82
2022-10-05T19:41:36.122Z,13.78
2022-10-05T19:43:51.798Z,13.82
2022-10-05T19:46:01.748Z,13.83
2022-10-05T19:48:16.792Z,13.86
2022-10-05T19:50:30.509Z,13.89
2022-10-05T19:52:40.874Z,13.87
2022-10-05T19:54:43.757Z,13.90
2022-10-05T19:56:47.457Z,13.88
2022-10-05T19:58:50.170Z,13.89
2022-10-05T20:00:57.515Z,13.88
2022-10-05T20:03:10.333Z,13.85
2022-10-05T20:05:14.043Z,13.82
2022-10-05T20:07:17.626Z,13.77
2022-10-05T20:09:21.554Z,13.73
2022-10-05T20:11:25.053Z,13.71
2022-10-05T20:13:26.942Z,13.73
2022-10-05T20:15:30.511Z,13.75
2022-10-05T20:17:32.461Z,13.74
2022-10-05T20:19:38.410Z,13.74
2022-10-05T20:21:46.759Z,13.71
2022-10-05T20:24:06.310Z,13.70
2022-10-05T20:26:07.788Z,13.73
2022-10-05T20:28:10.866Z,13.72
2022-10-05T20:30:15.705Z,13.71
2022-10-05T20:32:21.023Z,13.74
2022-10-05T20:34:22.914Z,13.72
2022-10-05T20:36:24.375Z,13.81
2022-10-05T20:38:26.180Z,13.79
2022-10-05T20:40:29.446Z,13.82
2022-10-05T20:42:31.237Z,13.81
2022-10-05T20:44:34.781Z,13.84
2022-10-05T20:46:36.495Z,13.88
2022-10-05T20:48:38.129Z,13.92
2022-10-05T20:50:39.665Z,13.97
2022-10-05T20:52:43.188Z,13.92
2022-10-05T20:56:52.010Z,14.03
2022-10-05T20:58:53.504Z,13.97
2022-10-05T21:00:56.462Z,13.98
2022-10-05T21:02:58.129Z,13.98
2022-10-05T21:04:59.774Z,13.97
2022-10-05T21:07:02.267Z,14.01
2022-10-05T21:09:04.807Z,13.99
2022-10-05T21:11:06.357Z,14.04
2022-10-05T21:13:07.813Z,14.10
2022-10-05T21:15:09.300Z,14.13
2022-10-05T21:17:12.373Z,14.18
2022-10-05T21:19:15.403Z,14.14
2022-10-05T21:21:18.063Z,14.15
2022-10-05T21:23:19.506Z,14.20
2022-10-05T21:25:21.016Z,14.22
2022-10-05T21:27:22.470Z,14.22
2022-10-05T21:29:24.125Z,14.24
2022-10-05T21:31:26.018Z,14.21
2022-10-05T21:33:29.171Z,14.33
2022-10-05T21:35:31.466Z,14.33
2022-10-05T21:37:33.088Z,14.36
2022-10-05T21:39:34.562Z,14.38
2022-10-05T21:41:36.143Z,14.40
2022-10-05T21:43:37.675Z,14.39
2022-10-05T21:45:39.310Z,14.43
2022-10-05T21:47:40.903Z,14.45
2022-10-05T21:49:43.952Z,14.45
2022-10-05T21:51:45.485Z,14.46
2022-10-05T21:53:51.791Z,14.45
2022-10-05T21:55:53.448Z,14.44
2022-10-05T21:57:56.612Z,14.44
2022-10-05T22:00:06.070Z,14.38
2022-10-05T22:02:07.827Z,14.40
2022-10-05T22:04:09.314Z,14.36
2022-10-05T22:06:12.608Z,14.35
2022-10-05T22:08:20.796Z,14.37
2022-10-05T22:10:22.855Z,14.34
2022-10-05T22:12:24.413Z,14.37
2022-10-05T22:14:25.912Z,14.34
2022-10-05T22:16:28.557Z,14.31
2022-10-05T22:18:30.536Z,14.29
2022-10-05T22:20:34.210Z,14.25
2022-10-05T22:22:37.270Z,14.24
2022-10-05T22:24:38.705Z,14.20
2022-10-05T22:26:41.974Z,14.20
2022-10-05T22:28:44.464Z,14.21
2022-10-05T22:30:46.132Z,14.19
2022-10-05T22:32:47.609Z,14.19
2022-10-05T22:34:49.230Z,14.21
2022-10-05T22:36:50.757Z,14.20
2022-10-05T22:38:53.683Z,14.16
2022-10-05T22:40:55.441Z,14.21
2022-10-05T22:42:57.526Z,14.18
2022-10-05T22:44:59.078Z,14.14
2022-10-05T22:47:00.875Z,14.14
2022-10-05T22:49:02.337Z,14.18
2022-10-05T22:51:04.005Z,14.14
2022-10-05T22:53:05.545Z,14.17
2022-10-05T22:55:09.382Z,14.16
2022-10-05T22:57:11.075Z,14.21
2022-10-05T22:59:12.943Z,14.21
2022-10-05T23:01:17.052Z,14.26
2022-10-05T23:03:18.816Z,14.24
2022-10-05T23:05:20.290Z,14.29
2022-10-05T23:07:22.134Z,14.29
2022-10-05T23:09:23.611Z,14.26
2022-10-05T23:11:27.708Z,14.23
2022-10-05T23:13:30.068Z,14.25
2022-10-05T23:15:31.553Z,14.23
2022-10-05T23:17:33.504Z,14.18
2022-10-05T23:19:34.961Z,14.20
2022-10-05T23:21:36.482Z,14.19
2022-10-05T23:23:39.865Z,14.18
2022-10-05T23:25:41.461Z,14.15
2022-10-05T23:27:44.475Z,14.12
2022-10-05T23:29:46.005Z,14.13
2022-10-05T23:31:47.484Z,14.05
2022-10-05T23:33:49.106Z,14.09
2022-10-05T23:35:57.371Z,14.07
2022-10-05T23:37:59.381Z,14.03
2022-10-05T23:40:00.844Z,14.00
2022-10-05T23:42:02.333Z,13.96
2022-10-05T23:44:05.186Z,13.97
2022-10-05T23:46:07.321Z,13.97
2022-10-05T23:48:08.853Z,13.97
2022-10-05T23:50:10.587Z,13.97
2022-10-05T23:52:12.476Z,13.99
2022-10-05T23:54:14.354Z,13.96
2022-10-05T23:56:16.046Z,13.99
2022-10-05T23:58:18.048Z,13.95
